createdAt,value
2017-01-03T00:00:08.836Z,0.75
2017-01-03T00:01:08.194Z,0.88
2017-01-03T00:02:08.317Z,0.71
2017-01-03T00:03:08.298Z,0.74
2017-01-03T00:04:08.304Z,0.62
2017-01-03T00:05:08.268Z,0.67
2017-01-03T00:06:08.322Z,0.66
2017-01-03T00:07:08.543Z,0.74
2017-01-03T00:08:08.644Z,0.77
2017-01-03T00:09:08.022Z,0.77
2017-01-03T00:10:08.269Z,0.92
2017-01-03T00:11:08.360Z,0.81
2017-01-03T00:12:08.620Z,0.81
2017-01-03T00:13:08.082Z,0.78
2017-01-03T00:14:08.528Z,0.95
2017-01-03T00:15:08.508Z,0.74
2017-01-03T00:16:08.481Z,0.85
2017-01-03T00:17:08.755Z,0.98
2017-01-03T00:18:08.149Z,0.80
2017-01-03T00:19:08.470Z,0.78
2017-01-03T00:20:08.883Z,0.73
2017-01-03T00:21:08.383Z,0.78
2017-01-03T00:22:08.208Z,0.81
2017-01-03T00:23:08.348Z,0.67
2017-01-03T00:24:08.260Z,0.80
2017-01-03T00:25:08.375Z,0.95
2017-01-03T00:26:08.523Z,0.88
2017-01-03T00:27:08.764Z,0.95
2017-01-03T00:28:08.147Z,0.97
2017-01-03T00:29:08.347Z,0.86
2017-01-03T00:30:08.391Z,0.78
2017-01-03T00:31:08.762Z,0.82
2017-01-03T00:32:08.357Z,0.59
2017-01-03T00:33:08.365Z,0.64
2017-01-03T00:34:08.346Z,0.66
2017-01-03T00:35:08.471Z,0.73
2017-01-03T00:36:08.754Z,0.66
2017-01-03T00:37:08.333Z,0.77
2017-01-03T00:38:08.272Z,0.78
2017-01-03T00:39:08.746Z,0.85
2017-01-03T00:40:08.558Z,0.89
2017-01-03T00:41:08.946Z,0.83
2017-01-03T00:42:08.119Z,0.67
2017-01-03T00:43:08.422Z,0.80
2017-01-03T00:44:08.367Z,0.90
2017-01-03T00:45:08.419Z,0.84
2017-01-03T00:46:08.393Z,0.71
2017-01-03T00:47:08.323Z,0.70
2017-01-03T00:48:08.378Z,0.82
2017-01-03T00:49:08.414Z,0.88
2017-01-03T00:50:08.542Z,0.85
2017-01-03T00:51:08.655Z,0.96
2017-01-03T00:52:08.006Z,0.91
2017-01-03T00:53:08.154Z,0.68
2017-01-03T00:54:08.241Z,0.72
2017-01-03T00:55:08.208Z,0.52
2017-01-03T00:56:08.169Z,0.67
2017-01-03T00:57:08.490Z,0.62
2017-01-03T00:58:17.990Z,0.76
2017-01-03T00:59:08.172Z,0.90
2017-01-03T01:00:08.524Z,0.93
2017-01-03T01:01:08.541Z,0.90
2017-01-03T01:02:08.589Z,0.81
2017-01-03T01:03:08.307Z,0.76
2017-01-03T01:04:08.401Z,0.72
2017-01-03T01:05:08.446Z,0.78
2017-01-03T01:06:08.657Z,0.74
2017-01-03T01:07:08.097Z,0.80
2017-01-03T01:08:08.090Z,0.70
2017-01-03T01:09:08.364Z,0.85
2017-01-03T01:10:08.480Z,0.66
2017-01-03T01:11:08.468Z,0.65
2017-01-03T01:12:08.429Z,0.74
2017-01-03T01:13:08.335Z,0.93
2017-01-03T01:14:08.320Z,0.73
2017-01-03T01:15:08.413Z,0.72
2017-01-03T01:16:08.374Z,0.84
2017-01-03T01:17:08.354Z,0.66
2017-01-03T01:18:08.244Z,0.78
2017-01-03T01:19:07.917Z,0.85
2017-01-03T01:20:08.035Z,0.75
2017-01-03T01:21:08.272Z,0.80
2017-01-03T01:22:08.311Z,0.81
2017-01-03T01:23:08.459Z,0.89
2017-01-03T01:24:08.725Z,1.02
2017-01-03T01:25:08.159Z,0.61
2017-01-03T01:26:08.270Z,0.76
2017-01-03T01:27:08.335Z,0.74
2017-01-03T01:28:08.212Z,0.75
2017-01-03T01:29:08.169Z,0.78
2017-01-03T01:30:07.874Z,0.87
2017-01-03T01:31:08.300Z,0.81
2017-01-03T01:32:08.284Z,0.91
2017-01-03T01:33:08.304Z,0.90
2017-01-03T01:34:08.302Z,0.99
2017-01-03T01:35:08.291Z,0.94
2017-01-03T01:36:08.659Z,0.78
2017-01-03T01:37:08.094Z,0.65
2017-01-03T01:38:08.614Z,0.75
2017-01-03T01:39:07.766Z,0.67
2017-01-03T01:40:08.202Z,0.62
2017-01-03T01:41:08.511Z,0.66
2017-01-03T01:42:09.149Z,0.62
2017-01-03T01:43:08.499Z,0.68
2017-01-03T01:44:08.503Z,0.76
2017-01-03T01:45:08.385Z,0.79
2017-01-03T01:46:08.300Z,0.91
2017-01-03T01:47:08.485Z,0.94
2017-01-03T01:48:08.198Z,1.09
2017-01-03T01:49:08.446Z,0.97
2017-01-03T01:50:08.774Z,0.99
2017-01-03T01:51:07.768Z,0.92
2017-01-03T01:52:08.831Z,0.78
2017-01-03T01:53:08.237Z,0.70
2017-01-03T01:54:08.331Z,0.93
2017-01-03T01:55:08.660Z,0.94
2017-01-03T01:56:08.101Z,1.11
2017-01-03T01:57:08.491Z,1.07
2017-01-03T01:58:08.173Z,1.04
2017-01-03T01:59:08.196Z,0.95
2017-01-03T02:00:08.193Z,0.98
2017-01-03T02:01:08.323Z,0.99
2017-01-03T02:02:08.253Z,1.01
2017-01-03T02:03:08.439Z,0.98
2017-01-03T02:04:08.637Z,1.01
2017-01-03T02:05:08.446Z,0.78
2017-01-03T02:06:08.705Z,0.91
2017-01-03T02:07:07.919Z,0.99
2017-01-03T02:08:08.649Z,0.70
2017-01-03T02:09:08.307Z,0.80
2017-01-03T02:10:08.664Z,0.94
2017-01-03T02:11:08.116Z,0.88
2017-01-03T02:12:08.360Z,0.75
2017-01-03T02:13:08.363Z,0.60
2017-01-03T02:14:08.067Z,0.83
2017-01-03T02:15:08.317Z,0.84
2017-01-03T02:16:08.328Z,0.93
2017-01-03T02:17:08.476Z,1.07
2017-01-03T02:18:08.468Z,0.81
2017-01-03T02:19:08.684Z,0.66
2017-01-03T02:20:07.846Z,0.61
2017-01-03T02:21:08.515Z,0.60
2017-01-03T02:22:08.649Z,0.73
2017-01-03T02:23:08.327Z,1.00
2017-01-03T02:24:08.498Z,0.79
2017-01-03T02:25:08.860Z,0.82
2017-01-03T02:26:08.401Z,0.97
2017-01-03T02:27:08.845Z,1.04
2017-01-03T02:28:17.338Z,0.91
2017-01-03T02:29:08.205Z,1.01
2017-01-03T02:30:08.635Z,0.92
2017-01-03T02:31:08.294Z,0.76
2017-01-03T02:32:08.511Z,0.46
2017-01-03T02:33:08.230Z,0.59
2017-01-03T02:34:08.278Z,0.64
2017-01-03T02:35:08.743Z,0.84
2017-01-03T02:36:08.144Z,0.78
2017-01-03T02:37:08.501Z,0.80
2017-01-03T02:38:08.639Z,0.80
2017-01-03T02:39:08.407Z,0.73
2017-01-03T02:40:08.840Z,0.78
2017-01-03T02:41:08.574Z,0.85
2017-01-03T02:42:08.243Z,0.78
2017-01-03T02:43:08.596Z,0.60
2017-01-03T02:44:08.084Z,0.69
2017-01-03T02:45:08.547Z,0.70
2017-01-03T02:46:08.466Z,0.89
2017-01-03T02:47:08.258Z,0.70
2017-01-03T02:48:08.514Z,0.55
2017-01-03T02:49:08.500Z,0.62
2017-01-03T02:50:08.639Z,0.74
2017-01-03T02:51:08.125Z,0.77
2017-01-03T02:52:08.803Z,0.87
2017-01-03T02:53:08.067Z,0.82
2017-01-03T02:54:08.245Z,0.95
2017-01-03T02:55:08.724Z,0.50
2017-01-03T02:56:08.080Z,0.60
2017-01-03T02:57:08.057Z,0.79
2017-01-03T02:58:17.506Z,0.74
2017-01-03T02:59:08.386Z,0.79
2017-01-03T03:00:08.617Z,0.85
2017-01-03T03:01:08.539Z,0.74
2017-01-03T03:02:08.914Z,0.83
2017-01-03T03:03:08.466Z,0.88
2017-01-03T03:04:08.673Z,1.05
2017-01-03T03:05:08.225Z,1.07
2017-01-03T03:06:08.777Z,0.90
2017-01-03T03:07:08.226Z,0.89
2017-01-03T03:08:08.313Z,0.91
2017-01-03T03:09:08.479Z,0.99
2017-01-03T03:10:08.605Z,0.72
2017-01-03T03:11:08.225Z,0.87
2017-01-03T03:12:08.656Z,0.64
2017-01-03T03:13:08.370Z,0.79
2017-01-03T03:14:08.593Z,0.79
2017-01-03T03:15:08.455Z,0.79
2017-01-03T03:16:08.635Z,0.82
2017-01-03T03:17:08.506Z,0.86
2017-01-03T03:18:08.699Z,1.02
2017-01-03T03:19:08.157Z,0.99
2017-01-03T03:20:08.393Z,1.01
2017-01-03T03:21:08.454Z,0.85
2017-01-03T03:22:08.477Z,0.73
2017-01-03T03:23:08.516Z,0.76
2017-01-03T03:24:08.600Z,0.79
2017-01-03T03:25:08.146Z,0.82
2017-01-03T03:26:08.530Z,0.64
2017-01-03T03:27:08.676Z,0.61
2017-01-03T03:28:08.559Z,0.78
2017-01-03T03:29:08.710Z,0.77
2017-01-03T03:30:08.466Z,0.64
2017-01-03T03:31:08.599Z,0.79
2017-01-03T03:32:08.315Z,0.81
2017-01-03T03:33:08.854Z,0.78
2017-01-03T03:34:08.441Z,0.72
2017-01-03T03:35:08.595Z,0.79
2017-01-03T03:36:08.269Z,0.79
2017-01-03T03:37:08.719Z,0.68
2017-01-03T03:38:08.310Z,0.62
2017-01-03T03:39:08.549Z,0.63
2017-01-03T03:40:08.765Z,0.57
2017-01-03T03:41:08.390Z,0.91
2017-01-03T03:42:08.309Z,0.84
2017-01-03T03:43:08.572Z,0.71
2017-01-03T03:44:08.529Z,0.73
2017-01-03T03:45:08.710Z,0.54
2017-01-03T03:46:08.495Z,0.47
2017-01-03T03:47:08.794Z,0.57
2017-01-03T03:48:08.074Z,0.81
2017-01-03T03:49:08.189Z,0.62
2017-01-03T03:50:08.015Z,0.70
2017-01-03T03:51:08.379Z,0.87
2017-01-03T03:52:08.755Z,0.87
2017-01-03T03:53:08.051Z,0.93
2017-01-03T03:56:13.441Z,0.73
2017-01-03T03:57:08.420Z,0.82
2017-01-03T03:58:08.888Z,0.55
2017-01-03T03:59:08.279Z,0.72
2017-01-03T04:00:08.539Z,0.78
2017-01-03T04:01:09.021Z,0.60
2017-01-03T04:02:08.288Z,0.81
2017-01-03T04:03:17.811Z,0.93
2017-01-03T04:04:08.029Z,0.96
2017-01-03T04:05:17.550Z,0.90
2017-01-03T04:06:08.969Z,0.97
2017-01-03T04:07:17.494Z,0.96
2017-01-03T04:09:02.748Z,0.86
2017-01-03T04:09:08.580Z,0.84
2017-01-03T04:10:08.685Z,0.67
2017-01-03T04:11:08.335Z,0.88
2017-01-03T04:12:08.942Z,1.00
2017-01-03T04:13:08.429Z,0.69
2017-01-03T04:14:08.584Z,0.79
2017-01-03T04:15:08.606Z,0.86
2017-01-03T04:16:08.131Z,0.73
2017-01-03T04:17:08.613Z,0.80
2017-01-03T04:18:08.311Z,0.79
2017-01-03T04:19:08.793Z,0.98
2017-01-03T04:20:08.087Z,1.07
2017-01-03T04:21:07.988Z,1.09
2017-01-03T04:22:08.440Z,1.00
2017-01-03T04:23:08.630Z,0.99
2017-01-03T04:24:08.067Z,1.06
2017-01-03T04:25:08.548Z,0.92
2017-01-03T04:26:08.416Z,0.99
2017-01-03T04:27:08.422Z,0.83
2017-01-03T04:28:08.473Z,0.73
2017-01-03T04:29:08.519Z,0.72
2017-01-03T04:30:08.553Z,0.74
2017-01-03T04:31:08.772Z,0.86
2017-01-03T04:32:08.378Z,1.01
2017-01-03T04:33:08.829Z,0.78
2017-01-03T04:34:07.927Z,0.76
2017-01-03T04:35:08.247Z,0.80
2017-01-03T04:36:08.642Z,0.63
2017-01-03T04:37:08.478Z,0.75
2017-01-03T04:38:08.687Z,0.83
2017-01-03T04:39:08.275Z,0.94
2017-01-03T04:40:08.661Z,1.01
2017-01-03T04:41:08.381Z,0.88
2017-01-03T04:42:08.637Z,0.80
2017-01-03T04:43:08.417Z,0.68
2017-01-03T04:44:08.780Z,0.75
2017-01-03T04:45:08.438Z,0.83
2017-01-03T04:46:08.639Z,0.89
2017-01-03T04:47:07.992Z,0.87
2017-01-03T04:48:08.616Z,0.99
2017-01-03T04:49:08.397Z,0.71
2017-01-03T04:50:08.807Z,0.75
2017-01-03T04:51:07.988Z,0.76
2017-01-03T04:52:08.499Z,0.88
2017-01-03T04:53:09.228Z,0.90
2017-01-03T04:54:08.704Z,1.05
2017-01-03T04:55:08.416Z,0.75
2017-01-03T04:56:08.805Z,0.74
2017-01-03T04:57:08.227Z,0.94
2017-01-03T04:58:08.406Z,0.86
2017-01-03T04:59:08.400Z,0.89
2017-01-03T05:00:08.538Z,0.97
2017-01-03T05:01:08.549Z,0.86
2017-01-03T05:02:09.031Z,1.03
2017-01-03T05:03:08.465Z,0.99
2017-01-03T05:04:08.482Z,0.90
2017-01-03T05:05:08.552Z,0.96
2017-01-03T05:06:08.703Z,1.05
2017-01-03T05:07:08.219Z,0.83
2017-01-03T05:08:08.462Z,0.94
2017-01-03T05:09:08.569Z,1.08
2017-01-03T05:10:08.624Z,1.09
2017-01-03T05:11:08.474Z,0.96
2017-01-03T05:12:08.896Z,1.02
2017-01-03T05:13:08.646Z,0.81
2017-01-03T05:14:08.199Z,0.86
2017-01-03T05:15:08.249Z,1.02
2017-01-03T05:16:08.237Z,0.95
2017-01-03T05:17:08.590Z,0.94
2017-01-03T05:18:08.096Z,1.06
2017-01-03T05:19:08.782Z,1.07
2017-01-03T05:20:08.468Z,0.94
2017-01-03T05:21:08.609Z,0.95
2017-01-03T05:22:08.348Z,0.93
2017-01-03T05:23:08.598Z,0.97
2017-01-03T05:24:07.715Z,1.11
2017-01-03T05:25:10.743Z,1.05
2017-01-03T05:26:21.729Z,1.09
2017-01-03T05:27:08.521Z,1.10
2017-01-03T05:28:08.490Z,1.10
2017-01-03T05:29:08.435Z,1.02
2017-01-03T05:30:08.719Z,1.10
2017-01-03T05:31:08.462Z,1.12
2017-01-03T05:32:09.411Z,1.21
2017-01-03T05:33:08.327Z,1.11
2017-01-03T05:34:08.450Z,0.90
2017-01-03T05:35:08.930Z,0.96
2017-01-03T05:36:08.538Z,0.91
2017-01-03T05:37:08.510Z,0.99
2017-01-03T05:38:08.516Z,0.80
2017-01-03T05:39:08.438Z,0.88
2017-01-03T05:40:08.843Z,0.96
2017-01-03T05:41:08.718Z,1.07
2017-01-03T05:42:08.499Z,0.99
2017-01-03T05:43:08.530Z,0.83
2017-01-03T05:44:08.513Z,0.97
2017-01-03T05:45:08.863Z,0.98
2017-01-03T05:46:08.244Z,0.96
2017-01-03T05:47:08.184Z,1.02
2017-01-03T05:48:08.369Z,0.88
2017-01-03T05:49:08.765Z,1.00
2017-01-03T05:50:08.537Z,1.10
2017-01-03T05:51:08.631Z,1.05
2017-01-03T05:52:08.181Z,1.00
2017-01-03T05:53:08.795Z,0.85
2017-01-03T05:54:08.392Z,0.82
2017-01-03T05:55:08.811Z,0.85
2017-01-03T05:56:08.038Z,1.00
2017-01-03T05:57:08.149Z,1.01
2017-01-03T05:58:08.431Z,0.99
2017-01-03T05:59:08.593Z,1.06
2017-01-03T06:00:08.193Z,0.99
2017-01-03T06:01:08.125Z,0.96
2017-01-03T06:02:08.584Z,1.00
2017-01-03T06:03:08.542Z,1.05
2017-01-03T06:04:08.462Z,1.03
2017-01-03T06:05:08.875Z,0.90
2017-01-03T06:06:08.423Z,0.98
2017-01-03T06:07:08.739Z,1.10
2017-01-03T06:08:08.231Z,1.11
2017-01-03T06:09:08.637Z,0.85
2017-01-03T06:10:08.393Z,0.95
2017-01-03T06:11:08.866Z,0.82
2017-01-03T06:12:09.043Z,0.82
2017-01-03T06:13:08.342Z,0.78
2017-01-03T06:14:08.437Z,0.64
2017-01-03T06:15:08.701Z,0.66
2017-01-03T06:16:08.245Z,0.66
2017-01-03T06:17:27.938Z,0.69
2017-01-03T06:18:08.457Z,0.82
2017-01-03T06:19:08.970Z,0.63
2017-01-03T06:20:11.145Z,0.86
2017-01-03T06:21:08.450Z,0.92
2017-01-03T06:22:09.021Z,0.86
2017-01-03T06:23:08.450Z,0.96
2017-01-03T06:24:08.695Z,0.81
2017-01-03T06:25:08.093Z,0.71
2017-01-03T06:26:08.642Z,0.79
2017-01-03T06:27:08.121Z,0.81
2017-01-03T06:28:08.715Z,0.68
2017-01-03T06:29:08.404Z,0.82
2017-01-03T06:30:09.265Z,0.79
2017-01-03T06:31:08.555Z,0.82
2017-01-03T06:32:08.707Z,0.90
2017-01-03T06:33:08.032Z,0.76
2017-01-03T06:34:08.480Z,0.71
2017-01-03T06:35:08.114Z,0.79
2017-01-03T06:36:08.681Z,0.71
2017-01-03T06:37:08.289Z,0.68
2017-01-03T06:38:08.181Z,0.78
2017-01-03T06:39:08.596Z,0.71
2017-01-03T06:40:08.384Z,0.89
2017-01-03T06:41:08.796Z,0.95
2017-01-03T06:42:08.433Z,0.87
2017-01-03T06:43:08.873Z,0.69
2017-01-03T06:44:08.243Z,0.53
2017-01-03T06:45:08.564Z,0.66
2017-01-03T06:46:08.899Z,0.66
2017-01-03T06:47:08.354Z,0.72
2017-01-03T06:48:08.884Z,0.59
2017-01-03T06:49:08.384Z,0.59
2017-01-03T06:50:08.559Z,0.62
2017-01-03T06:51:08.511Z,0.65
2017-01-03T06:52:08.948Z,0.85
2017-01-03T06:53:08.294Z,0.80
2017-01-03T06:54:08.295Z,0.76
2017-01-03T06:55:08.425Z,0.68
2017-01-03T06:56:08.487Z,0.66
2017-01-03T06:57:23.672Z,0.66
2017-01-03T06:58:08.275Z,0.60
2017-01-03T06:59:09.918Z,0.50
2017-01-03T07:00:08.214Z,0.55
2017-01-03T07:01:08.259Z,0.49
2017-01-03T07:02:08.166Z,0.58
2017-01-03T07:03:08.425Z,0.72
2017-01-03T07:04:08.849Z,0.78
2017-01-03T07:05:08.533Z,0.43
2017-01-03T07:06:09.177Z,0.47
2017-01-03T07:07:08.570Z,0.68
2017-01-03T07:08:09.089Z,0.61
2017-01-03T07:09:08.465Z,0.48
2017-01-03T07:10:08.811Z,0.71
2017-01-03T07:11:08.476Z,0.61
2017-01-03T07:12:08.866Z,0.63
2017-01-03T07:13:08.506Z,0.51
2017-01-03T07:14:08.944Z,0.43
2017-01-03T07:15:08.908Z,0.47
2017-01-03T07:16:08.512Z,0.44
2017-01-03T07:17:08.887Z,0.58
2017-01-03T07:18:08.411Z,0.44
2017-01-03T07:19:08.667Z,0.65
2017-01-03T07:20:08.196Z,0.74
2017-01-03T07:21:08.781Z,0.76
2017-01-03T07:22:08.361Z,0.69
2017-01-03T07:23:08.944Z,0.78
2017-01-03T07:24:08.389Z,0.76
2017-01-03T07:25:08.789Z,0.81
2017-01-03T07:26:08.545Z,0.80
2017-01-03T07:27:08.743Z,0.81
2017-01-03T07:28:08.284Z,0.73
2017-01-03T07:29:08.532Z,0.74
2017-01-03T07:30:08.904Z,0.74
2017-01-03T07:31:08.418Z,0.82
2017-01-03T07:32:08.562Z,0.77
2017-01-03T07:33:08.640Z,0.73
2017-01-03T07:34:07.665Z,0.86
2017-01-03T07:35:08.822Z,0.86
2017-01-03T07:36:08.308Z,0.96
2017-01-03T07:37:08.568Z,0.93
2017-01-03T07:38:08.241Z,0.75
2017-01-03T07:39:08.796Z,0.80
2017-01-03T07:40:08.396Z,0.93
2017-01-03T07:41:08.763Z,0.76
2017-01-03T07:42:08.446Z,0.77
2017-01-03T07:43:08.882Z,0.79
2017-01-03T07:44:08.572Z,0.69
2017-01-03T07:45:08.314Z,0.92
2017-01-03T07:46:28.108Z,0.90
2017-01-03T07:48:08.744Z,1.08
2017-01-03T07:49:08.477Z,0.62
2017-01-03T07:50:09.125Z,0.46
2017-01-03T07:51:08.708Z,0.65
2017-01-03T07:52:08.459Z,0.81
2017-01-03T07:53:08.860Z,0.86
2017-01-03T07:54:08.545Z,0.89
2017-01-03T07:55:08.889Z,0.80
2017-01-03T07:56:08.688Z,0.87
2017-01-03T07:57:08.878Z,0.85
2017-01-03T07:58:08.484Z,0.71
2017-01-03T07:59:08.843Z,0.49
2017-01-03T08:00:08.443Z,0.66
2017-01-03T08:01:08.721Z,0.93
2017-01-03T08:02:08.597Z,0.86
2017-01-03T08:03:08.280Z,0.94
2017-01-03T08:04:08.766Z,0.72
2017-01-03T08:05:08.547Z,0.83
2017-01-03T08:06:09.082Z,0.84
2017-01-03T08:07:08.385Z,0.77
2017-01-03T08:08:09.190Z,0.66
2017-01-03T08:09:10.221Z,0.72
2017-01-03T08:10:08.777Z,0.79
2017-01-03T08:11:08.436Z,0.91
2017-01-03T08:12:08.838Z,0.96
2017-01-03T08:13:07.997Z,0.82
2017-01-03T08:14:08.987Z,0.79
2017-01-03T08:15:08.117Z,1.02
2017-01-03T08:16:08.508Z,1.00
2017-01-03T08:17:08.845Z,0.93
2017-01-03T08:18:08.553Z,0.74
2017-01-03T08:19:09.002Z,0.85
2017-01-03T08:20:08.458Z,0.91
2017-01-03T08:21:08.578Z,0.87
2017-01-03T08:22:09.035Z,0.79
2017-01-03T08:23:08.288Z,0.91
2017-01-03T08:24:08.690Z,0.78
2017-01-03T08:25:08.294Z,0.67
2017-01-03T08:26:08.629Z,0.48
2017-01-03T08:27:08.179Z,0.59
2017-01-03T08:28:08.592Z,0.33
2017-01-03T08:29:07.896Z,0.44
2017-01-03T08:30:08.737Z,0.33
2017-01-03T08:31:08.596Z,0.52
2017-01-03T08:32:09.253Z,0.53
2017-01-03T08:33:08.836Z,0.53
2017-01-03T08:34:08.588Z,0.47
2017-01-03T08:35:08.756Z,0.62
2017-01-03T08:36:08.125Z,0.77
2017-01-03T08:37:08.762Z,0.83
2017-01-03T08:38:08.392Z,0.87
2017-01-03T08:39:08.214Z,0.60
2017-01-03T08:40:08.540Z,0.65
2017-01-03T08:41:08.933Z,0.71
2017-01-03T08:42:08.449Z,0.47
2017-01-03T08:43:08.817Z,0.46
2017-01-03T08:44:08.390Z,0.38
2017-01-03T08:45:08.756Z,0.35
2017-01-03T08:46:08.304Z,0.51
2017-01-03T08:47:08.683Z,0.79
2017-01-03T08:48:08.296Z,0.86
2017-01-03T08:49:08.747Z,0.96
2017-01-03T08:50:08.348Z,1.06
2017-01-03T08:51:08.828Z,1.04
2017-01-03T08:52:08.453Z,0.89
2017-01-03T08:53:08.827Z,0.98
2017-01-03T08:54:08.625Z,0.84
2017-01-03T08:55:08.013Z,1.02
2017-01-03T08:56:08.434Z,1.08
2017-01-03T08:57:08.519Z,0.45
2017-01-03T08:58:08.526Z,0.44
2017-01-03T08:59:08.925Z,0.55
2017-01-03T09:00:08.848Z,0.51
2017-01-03T09:01:08.302Z,0.78
2017-01-03T09:02:08.510Z,0.86
2017-01-03T09:03:08.851Z,0.97
2017-01-03T09:04:08.504Z,1.26
2017-01-03T09:05:09.014Z,1.08
2017-01-03T09:06:08.353Z,0.86
2017-01-03T09:07:08.711Z,1.03
2017-01-03T09:08:08.345Z,1.05
2017-01-03T09:09:08.784Z,1.21
2017-01-03T09:10:08.212Z,1.46
2017-01-03T09:11:08.779Z,1.29
2017-01-03T09:12:08.348Z,1.39
2017-01-03T09:13:09.129Z,1.29
2017-01-03T09:14:08.409Z,1.07
2017-01-03T09:16:08.742Z,0.94
2017-01-03T09:16:10.860Z,1.00
2017-01-03T09:17:08.601Z,1.07
2017-01-03T09:18:08.143Z,0.98
2017-01-03T09:19:08.496Z,1.30
2017-01-03T09:20:08.870Z,1.41
2017-01-03T09:21:08.388Z,1.44
2017-01-03T09:22:08.489Z,1.34
2017-01-03T09:23:08.658Z,1.50
2017-01-03T09:24:08.230Z,1.40
2017-01-03T09:25:08.647Z,1.16
2017-01-03T09:26:08.303Z,1.27
2017-01-03T09:27:08.639Z,1.08
2017-01-03T09:28:07.680Z,1.22
2017-01-03T09:29:08.607Z,1.41
2017-01-03T09:30:08.191Z,1.39
2017-01-03T09:31:08.598Z,1.53
2017-01-03T09:32:08.191Z,1.59
2017-01-03T09:33:08.803Z,1.80
2017-01-03T09:34:08.068Z,1.83
2017-01-03T09:35:08.367Z,1.53
2017-01-03T09:36:08.748Z,1.50
2017-01-03T09:37:08.458Z,1.66
2017-01-03T09:38:08.764Z,1.47
2017-01-03T09:39:08.374Z,1.25
2017-01-03T09:40:08.879Z,1.50
2017-01-03T09:41:08.639Z,1.33
2017-01-03T09:42:08.270Z,1.33
2017-01-03T09:43:08.645Z,1.30
2017-01-03T09:44:08.217Z,1.31
2017-01-03T09:45:08.630Z,1.48
2017-01-03T09:46:08.281Z,1.61
2017-01-03T09:47:08.697Z,1.76
2017-01-03T09:48:08.122Z,1.77
2017-01-03T09:49:08.344Z,1.86
2017-01-03T09:50:08.736Z,1.70
2017-01-03T09:51:08.375Z,1.74
2017-01-03T09:52:08.803Z,1.62
2017-01-03T09:53:08.414Z,1.63
2017-01-03T09:54:08.800Z,1.77
2017-01-03T09:55:07.913Z,1.65
2017-01-03T09:56:08.354Z,1.57
2017-01-03T09:57:08.695Z,1.65
2017-01-03T09:58:08.386Z,1.77
2017-01-03T09:59:08.694Z,1.78
2017-01-03T10:00:08.283Z,1.64
2017-01-03T10:01:10.351Z,1.92
2017-01-03T10:02:08.787Z,1.84
2017-01-03T10:03:08.267Z,1.82
2017-01-03T10:04:08.641Z,1.69
2017-01-03T10:05:08.395Z,1.77
2017-01-03T10:06:09.012Z,1.60
2017-01-03T10:07:08.672Z,1.58
2017-01-03T10:08:08.297Z,1.58
2017-01-03T10:09:08.868Z,1.64
2017-01-03T10:10:08.547Z,1.69
2017-01-03T10:11:08.842Z,1.90
2017-01-03T10:12:08.169Z,1.86
2017-01-03T10:13:08.174Z,1.63
2017-01-03T10:14:08.194Z,1.72
2017-01-03T10:15:08.258Z,1.77
2017-01-03T10:16:08.739Z,1.74
2017-01-03T10:17:08.563Z,1.59
2017-01-03T10:18:09.275Z,1.70
2017-01-03T10:19:08.559Z,1.30
2017-01-03T10:20:08.889Z,1.21
2017-01-03T10:21:08.538Z,1.45
2017-01-03T10:22:08.748Z,1.75
2017-01-03T10:23:08.424Z,1.82
2017-01-03T10:24:08.625Z,1.40
2017-01-03T10:25:08.144Z,1.27
2017-01-03T10:26:08.544Z,1.61
2017-01-03T10:27:08.655Z,1.55
2017-01-03T10:28:08.350Z,1.76
2017-01-03T10:29:08.783Z,1.69
2017-01-03T10:30:08.185Z,1.38
2017-01-03T10:31:08.421Z,1.21
2017-01-03T10:32:08.780Z,1.05
2017-01-03T10:33:08.234Z,1.08
2017-01-03T10:34:08.654Z,1.34
2017-01-03T10:35:08.478Z,1.24
2017-01-03T10:36:08.690Z,1.24
2017-01-03T10:37:08.332Z,1.41
2017-01-03T10:38:08.728Z,1.42
2017-01-03T10:39:08.168Z,1.34
2017-01-03T10:40:08.830Z,1.16
2017-01-03T10:41:08.973Z,0.83
2017-01-03T10:42:08.803Z,0.95
2017-01-03T10:43:08.066Z,0.99
2017-01-03T10:44:08.473Z,1.19
2017-01-03T10:45:08.681Z,1.33
2017-01-03T10:46:08.335Z,1.12
2017-01-03T10:47:08.955Z,1.16
2017-01-03T10:48:08.699Z,1.24
2017-01-03T10:49:08.354Z,1.35
2017-01-03T10:50:08.943Z,1.41
2017-01-03T10:51:08.709Z,1.14
2017-01-03T10:52:08.325Z,1.33
2017-01-03T10:53:08.946Z,1.29
2017-01-03T10:54:08.700Z,1.39
2017-01-03T10:55:08.295Z,1.26
2017-01-03T10:56:08.704Z,1.38
2017-01-03T10:57:08.363Z,1.45
2017-01-03T10:58:08.238Z,1.54
2017-01-03T10:59:08.348Z,1.70
2017-01-03T11:00:08.722Z,1.62
2017-01-03T11:01:08.312Z,1.64
2017-01-03T11:02:08.715Z,1.65
2017-01-03T11:03:08.436Z,1.50
2017-01-03T11:04:09.026Z,1.57
2017-01-03T11:05:10.367Z,1.50
2017-01-03T11:06:08.939Z,1.55
2017-01-03T11:07:08.588Z,1.71
2017-01-03T11:08:08.084Z,1.44
2017-01-03T11:09:08.631Z,1.53
2017-01-03T11:10:07.871Z,1.45
2017-01-03T11:11:08.183Z,1.62
2017-01-03T11:12:08.759Z,1.49
2017-01-03T11:13:08.288Z,1.78
2017-01-03T11:14:08.750Z,1.75
2017-01-03T11:15:08.397Z,1.63
2017-01-03T11:16:08.789Z,1.82
2017-01-03T11:17:08.136Z,1.86
2017-01-03T11:18:08.439Z,1.90
2017-01-03T11:19:08.699Z,1.94
2017-01-03T11:20:08.283Z,1.73
2017-01-03T11:21:08.804Z,1.95
2017-01-03T11:22:08.283Z,1.94
2017-01-03T11:23:08.733Z,2.18
2017-01-03T11:24:08.200Z,2.26
2017-01-03T11:25:08.777Z,2.34
2017-01-03T11:26:08.549Z,2.23
2017-01-03T11:27:08.818Z,2.16
2017-01-03T11:28:08.366Z,2.22
2017-01-03T11:29:08.776Z,2.18
2017-01-03T11:30:08.449Z,1.96
2017-01-03T11:31:08.830Z,1.71
2017-01-03T11:32:08.178Z,1.96
2017-01-03T11:33:08.353Z,1.81
2017-01-03T11:34:09.246Z,1.78
2017-01-03T11:35:08.436Z,1.69
2017-01-03T11:36:08.666Z,1.89
2017-01-03T11:37:07.989Z,1.49
2017-01-03T11:38:08.471Z,1.67
2017-01-03T11:39:08.497Z,1.65
2017-01-03T11:40:08.521Z,1.53
2017-01-03T11:41:08.417Z,1.45
2017-01-03T11:42:09.134Z,1.74
2017-01-03T11:43:08.958Z,1.89
2017-01-03T11:44:08.683Z,1.82
2017-01-03T11:45:08.532Z,1.72
2017-01-03T11:46:08.702Z,1.93
2017-01-03T11:47:08.266Z,1.75
2017-01-03T11:48:08.689Z,1.61
2017-01-03T11:49:08.628Z,1.46
2017-01-03T11:50:07.752Z,1.64
2017-01-03T11:51:08.297Z,1.71
2017-01-03T11:52:08.348Z,1.48
2017-01-03T11:53:07.966Z,1.13
2017-01-03T11:54:08.703Z,1.40
2017-01-03T11:55:08.238Z,1.56
2017-01-03T11:56:08.386Z,1.60
2017-01-03T11:57:08.836Z,1.67
2017-01-03T11:58:08.378Z,1.60
2017-01-03T11:59:08.428Z,1.76
2017-01-03T12:00:08.394Z,1.78
2017-01-03T12:01:08.647Z,1.60
2017-01-03T12:02:07.937Z,1.81
2017-01-03T12:03:08.560Z,1.89
2017-01-03T12:04:08.052Z,2.03
2017-01-03T12:05:08.277Z,2.16
2017-01-03T12:06:08.209Z,2.33
2017-01-03T12:08:17.204Z,1.94
2017-01-03T12:09:08.604Z,2.11
2017-01-03T12:10:08.312Z,2.21
2017-01-03T12:11:08.447Z,2.20
2017-01-03T12:12:08.853Z,2.23
2017-01-03T12:13:08.327Z,1.87
2017-01-03T12:14:08.746Z,2.34
2017-01-03T12:15:08.324Z,2.53
2017-01-03T12:16:08.912Z,2.60
2017-01-03T12:17:08.771Z,2.39
2017-01-03T12:18:08.280Z,2.44
2017-01-03T12:19:09.130Z,2.62
2017-01-03T12:20:08.536Z,2.40
2017-01-03T12:21:08.641Z,2.08
2017-01-03T12:23:17.708Z,2.18
2017-01-03T12:24:17.201Z,1.49
2017-01-03T12:25:08.621Z,1.27
2017-01-03T12:26:08.351Z,1.90
2017-01-03T12:27:08.784Z,2.12
2017-01-03T12:28:08.011Z,2.39
2017-01-03T12:29:09.457Z,2.38
2017-01-03T12:30:09.110Z,2.28
2017-01-03T12:31:08.622Z,2.35
2017-01-03T12:33:08.506Z,2.06
2017-01-03T12:34:10.366Z,2.08
2017-01-03T12:35:08.921Z,2.09
2017-01-03T12:36:08.705Z,2.06
2017-01-03T12:37:08.501Z,2.35
2017-01-03T12:38:09.819Z,2.28
2017-01-03T12:39:08.157Z,2.14
2017-01-03T12:41:17.986Z,2.48
2017-01-03T12:42:09.306Z,2.29
2017-01-03T12:43:08.920Z,2.10
2017-01-03T12:45:08.088Z,2.01
2017-01-03T12:46:08.992Z,2.03
2017-01-03T12:47:08.590Z,2.25
2017-01-03T12:49:09.217Z,2.77
2017-01-03T12:50:08.655Z,2.87
2017-01-03T12:51:08.483Z,2.84
2017-01-03T12:52:09.178Z,2.68
2017-01-03T12:53:09.146Z,2.82
2017-01-03T12:54:10.017Z,3.01
2017-01-03T12:56:08.899Z,2.80
2017-01-03T12:57:08.402Z,2.61
2017-01-03T12:58:09.243Z,2.71
2017-01-03T12:59:09.060Z,2.45
2017-01-03T13:00:08.792Z,2.64
2017-01-03T13:01:08.338Z,2.18
2017-01-03T13:02:09.058Z,2.19
2017-01-03T13:03:08.611Z,2.48
2017-01-03T13:04:08.169Z,1.76
2017-01-03T13:05:08.941Z,1.97
2017-01-03T13:06:08.348Z,1.93
2017-01-03T13:07:09.365Z,1.80
2017-01-03T13:08:09.223Z,1.74
2017-01-03T13:09:08.847Z,1.77
2017-01-03T13:10:08.265Z,2.04
2017-01-03T13:11:09.392Z,2.06
2017-01-03T13:12:08.784Z,2.05
2017-01-03T13:13:09.082Z,1.99
2017-01-03T13:14:09.913Z,1.80
2017-01-03T13:15:08.364Z,1.68
2017-01-03T13:16:09.148Z,1.80
2017-01-03T13:17:08.940Z,1.87
2017-01-03T13:18:08.884Z,1.89
2017-01-03T13:19:08.802Z,1.77
2017-01-03T13:20:08.265Z,1.93
2017-01-03T13:21:09.059Z,1.82
2017-01-03T13:22:10.989Z,1.71
2017-01-03T13:23:08.776Z,1.70
2017-01-03T13:24:09.291Z,1.67
2017-01-03T13:25:08.778Z,1.77
2017-01-03T13:26:09.315Z,1.99
2017-01-03T13:27:08.957Z,2.05
2017-01-03T13:28:08.143Z,1.72